createdAt,value
2018-08-19T00:00:18.215Z,17.17
2018-08-19T00:02:45.312Z,17.15
2018-08-19T00:05:16.043Z,17.11
2018-08-19T00:07:43.093Z,17.08
2018-08-19T00:10:10.158Z,17.06
2018-08-19T00:12:39.263Z,17.05
2018-08-19T00:15:06.306Z,17.02
2018-08-19T00:17:33.783Z,16.99
2018-08-19T00:20:00.819Z,17.00
2018-08-19T00:22:27.815Z,16.99
2018-08-19T00:24:54.831Z,16.96
2018-08-19T00:27:21.944Z,16.86
2018-08-19T00:29:49.606Z,16.91
2018-08-19T00:32:16.624Z,16.91
2018-08-19T00:34:43.919Z,16.86
2018-08-19T00:37:11.063Z,16.84
2018-08-19T00:39:38.833Z,16.83
2018-08-19T00:42:05.918Z,16.81
2018-08-19T00:44:33.311Z,16.81
2018-08-19T00:47:00.356Z,16.80
2018-08-19T00:49:27.617Z,16.80
2018-08-19T00:51:58.556Z,16.79
2018-08-19T00:54:26.203Z,16.76
2018-08-19T00:56:55.476Z,16.72
2018-08-19T00:59:22.532Z,16.72
2018-08-19T01:01:49.615Z,16.70
2018-08-19T01:04:16.788Z,16.67
2018-08-19T01:06:49.480Z,16.65
2018-08-19T01:09:16.579Z,16.64
2018-08-19T01:11:43.679Z,16.63
2018-08-19T01:14:12.311Z,16.58
2018-08-19T01:16:39.527Z,16.59
2018-08-19T01:19:07.047Z,16.57
2018-08-19T01:21:34.052Z,16.56
2018-08-19T01:24:03.988Z,16.51
2018-08-19T01:26:32.477Z,16.52
2018-08-19T01:28:59.499Z,16.51
2018-08-19T01:31:26.896Z,16.50
2018-08-19T01:33:53.931Z,16.47
2018-08-19T01:36:20.933Z,16.47
2018-08-19T01:38:48.312Z,16.47
2018-08-19T01:41:15.300Z,16.45
2018-08-19T01:43:54.021Z,16.44
2018-08-19T01:46:20.999Z,16.43
2018-08-19T01:48:49.678Z,16.41
2018-08-19T01:51:16.735Z,16.42
2018-08-19T01:53:43.839Z,16.38
2018-08-19T01:56:11.010Z,16.37
2018-08-19T01:58:42.648Z,16.36
2018-08-19T02:01:09.619Z,16.33
2018-08-19T02:03:36.928Z,16.30
2018-08-19T02:06:03.977Z,16.32
2018-08-19T02:08:31.051Z,16.33
2018-08-19T02:10:58.144Z,16.29
2018-08-19T02:13:25.146Z,16.27
2018-08-19T02:15:52.143Z,16.19
2018-08-19T02:18:19.501Z,16.24
2018-08-19T02:20:46.637Z,16.22
2018-08-19T02:23:13.662Z,16.20
2018-08-19T02:25:42.725Z,16.18
2018-08-19T02:28:10.438Z,16.14
2018-08-19T02:30:52.764Z,16.15
2018-08-19T02:33:20.850Z,16.13
2018-08-19T02:36:08.392Z,16.14
2018-08-19T02:38:36.727Z,16.12
2018-08-19T02:41:04.377Z,16.11
2018-08-19T02:43:31.761Z,16.12
2018-08-19T02:45:58.744Z,16.09
2018-08-19T02:48:43.262Z,16.11
2018-08-19T02:51:12.044Z,16.07
2018-08-19T02:53:39.354Z,16.07
2018-08-19T02:56:06.541Z,16.05
2018-08-19T02:58:33.531Z,16.04
2018-08-19T03:01:00.553Z,16.01
2018-08-19T03:03:27.524Z,15.99
2018-08-19T03:06:00.297Z,15.96
2018-08-19T03:08:28.288Z,15.93
2018-08-19T03:10:55.671Z,15.92
2018-08-19T03:13:22.709Z,15.92
2018-08-19T03:15:55.409Z,15.92
2018-08-19T03:18:22.518Z,15.87
2018-08-19T03:20:49.592Z,15.88
2018-08-19T03:23:16.668Z,15.82
2018-08-19T03:25:43.671Z,15.82
2018-08-19T03:28:10.696Z,15.82
2018-08-19T03:30:39.448Z,15.81
2018-08-19T03:33:07.120Z,15.83
2018-08-19T03:35:34.149Z,15.81
2018-08-19T03:38:05.774Z,15.80
2018-08-19T03:40:32.720Z,15.79
2018-08-19T03:42:59.806Z,15.74
2018-08-19T03:45:29.788Z,15.76
2018-08-19T03:47:56.780Z,15.68
2018-08-19T03:50:25.873Z,15.69
2018-08-19T03:52:53.603Z,15.68
2018-08-19T03:55:24.752Z,15.68
2018-08-19T03:57:52.536Z,15.69
2018-08-19T04:00:21.748Z,15.69
2018-08-19T04:02:48.779Z,15.67
2018-08-19T04:05:15.802Z,15.65
2018-08-19T04:07:43.624Z,15.62
2018-08-19T04:10:10.939Z,15.63
2018-08-19T04:12:37.916Z,15.60
2018-08-19T04:15:07.019Z,15.64
2018-08-19T04:17:34.353Z,15.59
2018-08-19T04:20:01.343Z,15.56
2018-08-19T04:22:28.331Z,15.55
2018-08-19T04:24:55.393Z,15.55
2018-08-19T04:27:22.483Z,15.58
2018-08-19T04:29:49.864Z,15.56
2018-08-19T04:32:22.531Z,15.54
2018-08-19T04:34:49.804Z,15.56
2018-08-19T04:37:16.794Z,15.57
2018-08-19T04:39:43.805Z,15.59
2018-08-19T04:42:10.847Z,15.61
2018-08-19T04:44:37.786Z,15.61
2018-08-19T04:47:19.180Z,15.66
2018-08-19T04:49:46.164Z,15.69
2018-08-19T04:52:13.807Z,15.69
2018-08-19T04:54:41.020Z,15.73
2018-08-19T04:57:08.002Z,15.78
2018-08-19T04:59:35.005Z,15.80
2018-08-19T05:02:02.309Z,15.77
2018-08-19T05:04:29.243Z,15.81
2018-08-19T05:06:56.223Z,15.84
2018-08-19T05:09:23.247Z,16.21
2018-08-19T05:11:50.300Z,16.34
2018-08-19T05:14:17.351Z,16.37
2018-08-19T05:16:44.659Z,16.51
2018-08-19T05:19:11.645Z,16.56
2018-08-19T05:21:38.736Z,16.57
2018-08-19T05:24:05.830Z,16.79
2018-08-19T05:26:32.819Z,16.75
2018-08-19T05:29:08.509Z,16.53
2018-08-19T05:31:46.745Z,16.51
2018-08-19T05:34:32.975Z,16.65
2018-08-19T05:37:00.343Z,16.65
2018-08-19T05:39:27.604Z,16.65
2018-08-19T05:42:02.941Z,16.63
2018-08-19T05:44:31.952Z,16.86
2018-08-19T05:47:03.267Z,16.99
2018-08-19T05:49:30.256Z,17.11
2018-08-19T05:51:59.668Z,17.08
2018-08-19T05:54:26.820Z,17.14
2018-08-19T05:56:57.859Z,17.08
2018-08-19T05:59:24.890Z,17.14
2018-08-19T06:01:51.955Z,17.33
2018-08-19T06:04:19.088Z,17.25
2018-08-19T06:06:46.416Z,17.28
2018-08-19T06:09:13.479Z,17.30
2018-08-19T06:11:40.500Z,17.28
2018-08-19T06:14:07.507Z,17.29
2018-08-19T06:16:34.579Z,17.26
2018-08-19T06:19:01.592Z,17.32
2018-08-19T06:21:28.593Z,17.40
2018-08-19T06:23:56.160Z,17.52
2018-08-19T06:26:27.829Z,17.51
2018-08-19T06:28:54.817Z,17.52
2018-08-19T06:31:21.968Z,17.61
2018-08-19T06:33:49.109Z,17.66
2018-08-19T06:36:16.529Z,17.74
2018-08-19T06:38:43.524Z,17.74
2018-08-19T06:41:10.500Z,17.97
2018-08-19T06:43:37.679Z,18.05
2018-08-19T06:46:04.687Z,18.18
2018-08-19T06:48:31.871Z,18.13
2018-08-19T06:50:59.139Z,18.11
2018-08-19T06:53:29.242Z,18.08
2018-08-19T06:55:56.582Z,18.18
2018-08-19T06:58:24.845Z,18.18
2018-08-19T07:00:51.964Z,18.22
2018-08-19T07:03:19.060Z,18.28
2018-08-19T07:06:00.860Z,18.39
2018-08-19T07:08:27.936Z,18.39
2018-08-19T07:10:55.331Z,18.48
2018-08-19T07:13:22.468Z,18.54
2018-08-19T07:15:49.492Z,18.57
2018-08-19T07:18:16.532Z,18.61
2018-08-19T07:20:44.248Z,18.71
2018-08-19T07:23:12.261Z,18.76
2018-08-19T07:25:42.033Z,18.77
2018-08-19T07:28:10.204Z,18.72
2018-08-19T07:30:37.448Z,18.79
2018-08-19T07:33:05.044Z,18.81
2018-08-19T07:35:32.084Z,18.90
2018-08-19T07:37:59.127Z,18.99
2018-08-19T07:40:27.740Z,18.96
2018-08-19T07:42:56.285Z,18.87
2018-08-19T07:45:24.861Z,18.94
2018-08-19T07:47:52.208Z,18.95
2018-08-19T07:50:19.433Z,18.59
2018-08-19T07:52:46.686Z,19.12
2018-08-19T07:55:14.076Z,19.21
2018-08-19T07:57:42.068Z,19.27
2018-08-19T08:00:09.936Z,19.24
2018-08-19T08:02:37.107Z,19.27
2018-08-19T08:05:05.120Z,19.31
2018-08-19T08:07:32.715Z,19.36
2018-08-19T08:09:59.914Z,19.43
2018-08-19T08:12:29.305Z,19.40
2018-08-19T08:14:57.398Z,19.36
2018-08-19T08:17:25.612Z,19.38
2018-08-19T08:20:04.274Z,19.41
2018-08-19T08:22:32.486Z,19.47
2018-08-19T08:24:59.864Z,19.55
2018-08-19T08:27:27.064Z,19.72
2018-08-19T08:29:54.177Z,19.68
2018-08-19T08:32:21.531Z,19.74
2018-08-19T08:34:49.230Z,19.71
2018-08-19T08:37:16.340Z,19.75
2018-08-19T08:39:43.402Z,19.91
2018-08-19T08:42:10.468Z,20.04
2018-08-19T08:44:37.796Z,20.03
2018-08-19T08:47:07.782Z,20.07
2018-08-19T08:49:40.518Z,19.95
2018-08-19T08:52:14.425Z,19.93
2018-08-19T08:54:49.267Z,19.97
2018-08-19T08:57:17.764Z,19.95
2018-08-19T08:59:44.802Z,20.04
2018-08-19T09:02:12.100Z,20.09
2018-08-19T09:04:39.453Z,20.16
2018-08-19T09:07:06.647Z,20.20
2018-08-19T09:09:33.870Z,20.19
2018-08-19T09:12:00.950Z,20.16
2018-08-19T09:14:28.652Z,20.26
2018-08-19T09:16:56.119Z,20.39
2018-08-19T09:19:23.463Z,20.39
2018-08-19T09:21:50.749Z,20.37
2018-08-19T09:24:17.812Z,20.46
2018-08-19T09:27:24.374Z,20.35
2018-08-19T09:40:30.594Z,20.55
2018-08-19T09:44:00.995Z,20.77
2018-08-19T09:46:58.272Z,20.81
2018-08-19T09:50:31.056Z,20.92
2018-08-19T09:52:59.379Z,20.86
2018-08-19T09:55:32.888Z,20.90
2018-08-19T10:01:39.429Z,20.87
2018-08-19T10:04:26.947Z,20.67
2018-08-19T10:07:18.350Z,20.64
2018-08-19T10:09:48.167Z,20.65
2018-08-19T10:12:16.675Z,20.66
2018-08-19T10:14:47.323Z,20.57
2018-08-19T10:17:20.300Z,20.53
2018-08-19T10:19:49.935Z,20.42
2018-08-19T10:22:41.107Z,20.48
2018-08-19T10:33:40.153Z,20.97
2018-08-19T10:47:45.932Z,21.00
2018-08-19T10:54:15.839Z,21.19
2018-08-19T10:56:42.944Z,21.29
2018-08-19T10:59:13.527Z,21.37
2018-08-19T11:01:40.495Z,21.53
2018-08-19T11:04:07.623Z,21.53
2018-08-19T11:06:34.695Z,21.39
2018-08-19T11:09:01.847Z,21.38
2018-08-19T11:11:32.397Z,21.55
2018-08-19T11:13:59.596Z,21.89
2018-08-19T11:16:26.715Z,22.12
2018-08-19T11:18:53.816Z,21.91
2018-08-19T11:21:27.605Z,21.97
2018-08-19T11:23:55.606Z,21.89
2018-08-19T11:26:22.868Z,21.92
2018-08-19T11:28:55.753Z,21.88
2018-08-19T11:31:28.433Z,21.97
2018-08-19T11:34:00.108Z,21.98
2018-08-19T11:36:33.709Z,22.12
2018-08-19T11:39:00.728Z,22.43
2018-08-19T11:41:31.261Z,22.58
2018-08-19T11:43:58.766Z,22.86
2018-08-19T11:46:25.767Z,22.84
2018-08-19T11:48:58.468Z,22.71
2018-08-19T11:51:40.728Z,22.50
2018-08-19T11:54:08.872Z,22.67
2018-08-19T11:56:36.013Z,22.93
2018-08-19T11:59:03.117Z,22.98
2018-08-19T12:01:30.200Z,22.84
2018-08-19T12:04:01.186Z,22.72
2018-08-19T12:06:30.008Z,22.73
2018-08-19T12:08:58.257Z,22.68
2018-08-19T12:11:31.359Z,22.81
2018-08-19T12:14:01.888Z,23.12
2018-08-19T12:16:29.356Z,23.09
2018-08-19T12:19:08.991Z,22.84
2018-08-19T12:21:43.668Z,22.87
2018-08-19T12:24:18.208Z,23.18
2018-08-19T12:26:45.217Z,23.50
2018-08-19T12:29:12.426Z,23.43
2018-08-19T12:31:39.413Z,23.23
2018-08-19T12:34:06.446Z,23.32
2018-08-19T12:36:33.455Z,23.41
2018-08-19T12:39:00.471Z,23.36
2018-08-19T12:41:27.724Z,23.32
2018-08-19T12:43:59.001Z,23.62
2018-08-19T12:46:26.081Z,23.65
2018-08-19T12:48:53.092Z,24.12
2018-08-19T12:51:20.149Z,24.30
2018-08-19T12:53:47.288Z,24.50
2018-08-19T12:56:14.291Z,24.55
2018-08-19T12:58:41.264Z,24.72
2018-08-19T13:01:08.668Z,24.60
2018-08-19T13:03:35.693Z,24.84
2018-08-19T13:06:05.313Z,24.95
2018-08-19T13:08:32.331Z,24.97
2018-08-19T13:11:01.303Z,24.71
2018-08-19T13:13:28.452Z,24.80
2018-08-19T13:15:55.574Z,25.38
2018-08-19T13:18:28.671Z,25.54
2018-08-19T13:21:00.775Z,25.24
2018-08-19T13:23:28.777Z,25.00
2018-08-19T13:25:55.845Z,25.20
2018-08-19T13:28:23.024Z,24.99
2018-08-19T13:30:50.069Z,25.08
2018-08-19T13:33:17.065Z,25.24
2018-08-19T13:35:44.064Z,25.24
2018-08-19T13:38:16.043Z,25.40
2018-08-19T13:40:43.053Z,25.52
2018-08-19T13:43:10.086Z,25.80
2018-08-19T13:45:37.064Z,25.93
2018-08-19T13:48:04.114Z,26.32
2018-08-19T13:50:31.184Z,26.42
2018-08-19T13:52:58.262Z,26.62
2018-08-19T13:55:25.468Z,26.71
2018-08-19T13:57:52.489Z,26.57
2018-08-19T14:00:21.712Z,26.30
2018-08-19T14:02:49.180Z,26.58
2018-08-19T14:05:16.623Z,26.75
2018-08-19T14:07:44.491Z,26.80
2018-08-19T14:10:13.705Z,26.76
2018-08-19T14:12:40.998Z,27.21
2018-08-19T14:15:08.027Z,26.89
2018-08-19T14:17:35.404Z,26.62
2018-08-19T14:20:02.622Z,26.97
2018-08-19T14:22:30.267Z,27.15
2018-08-19T14:24:57.292Z,27.15
2018-08-19T14:27:24.370Z,27.15
2018-08-19T14:29:51.535Z,27.13
2018-08-19T14:32:31.032Z,26.88
2018-08-19T14:34:59.751Z,26.72
2018-08-19T14:37:27.059Z,26.87
2018-08-19T14:39:54.448Z,26.78
2018-08-19T14:42:22.634Z,26.67
2018-08-19T14:44:49.831Z,26.66
2018-08-19T14:47:16.853Z,26.50
2018-08-19T14:49:44.015Z,26.12
2018-08-19T14:52:11.140Z,26.10
2018-08-19T14:54:38.135Z,26.29
2018-08-19T14:57:05.223Z,26.14
2018-08-19T14:59:32.672Z,26.19
2018-08-19T15:01:59.667Z,25.97
2018-08-19T15:04:27.014Z,25.99
2018-08-19T15:06:54.017Z,26.05
2018-08-19T15:09:26.808Z,26.08
2018-08-19T15:11:58.404Z,26.07
2018-08-19T15:14:25.784Z,26.23
2018-08-19T15:16:53.447Z,26.06
2018-08-19T15:19:20.923Z,26.02
2018-08-19T15:21:50.295Z,25.92
2018-08-19T15:24:17.744Z,25.80
2018-08-19T15:26:45.235Z,25.90
2018-08-19T15:29:21.345Z,25.88
2018-08-19T15:31:48.648Z,25.90
2018-08-19T15:34:22.584Z,25.95
2018-08-19T15:36:50.133Z,25.90
2018-08-19T15:39:17.183Z,25.72
2018-08-19T15:41:44.747Z,25.68
2018-08-19T15:44:12.328Z,25.64
2018-08-19T15:46:39.810Z,25.67
2018-08-19T15:49:09.066Z,25.54
2018-08-19T15:51:36.266Z,25.51
2018-08-19T15:54:03.320Z,25.56
2018-08-19T15:56:30.674Z,25.68
2018-08-19T15:58:59.948Z,25.67
2018-08-19T16:01:29.299Z,25.58
2018-08-19T16:04:16.827Z,25.58
2018-08-19T16:06:46.654Z,25.45
2018-08-19T16:09:17.538Z,25.40
2018-08-19T16:11:46.099Z,25.34
2018-08-19T16:14:19.866Z,25.32
2018-08-19T16:16:47.320Z,25.29
2018-08-19T16:19:14.337Z,25.28
2018-08-19T16:21:41.659Z,25.27
2018-08-19T16:24:09.216Z,25.21
2018-08-19T16:26:36.624Z,25.25
2018-08-19T16:29:04.522Z,25.19
2018-08-19T16:31:31.571Z,25.13
2018-08-19T16:33:58.705Z,25.04
2018-08-19T16:36:26.067Z,25.06
2018-08-19T16:38:54.036Z,24.99
2018-08-19T16:41:21.482Z,24.95
2018-08-19T16:43:48.495Z,24.84
2018-08-19T16:46:15.582Z,24.82
2018-08-19T16:48:42.664Z,24.76
2018-08-19T16:51:09.867Z,24.79
2018-08-19T16:53:36.861Z,24.75
2018-08-19T16:56:03.914Z,24.77
2018-08-19T16:58:31.352Z,24.71
2018-08-19T17:00:58.492Z,24.71
2018-08-19T17:03:38.420Z,24.57
2018-08-19T17:06:10.603Z,24.59
2018-08-19T17:08:38.259Z,24.54
2018-08-19T17:11:05.727Z,24.46
2018-08-19T17:13:32.960Z,24.36
2018-08-19T17:16:00.408Z,24.34
2018-08-19T17:18:27.443Z,24.34
2018-08-19T17:20:54.479Z,24.28
2018-08-19T17:23:22.855Z,24.28
2018-08-19T17:25:50.510Z,24.19
2018-08-19T17:28:19.584Z,24.12
2018-08-19T17:30:47.562Z,24.06
2018-08-19T17:33:14.820Z,23.99
2018-08-19T17:35:46.040Z,24.00
2018-08-19T17:38:15.923Z,23.94
2018-08-19T17:40:43.074Z,23.88
2018-08-19T17:43:10.649Z,23.86
2018-08-19T17:45:38.073Z,23.80
2018-08-19T17:48:05.345Z,23.77
2018-08-19T17:50:32.381Z,23.71
2018-08-19T17:53:01.068Z,23.69
2018-08-19T17:55:28.110Z,23.62
2018-08-19T17:57:56.771Z,23.61
2018-08-19T18:00:24.110Z,23.51
2018-08-19T18:02:51.516Z,23.48
2018-08-19T18:05:19.000Z,23.41
2018-08-19T18:07:48.828Z,23.40
2018-08-19T18:10:15.942Z,23.39
2018-08-19T18:12:43.340Z,23.34
2018-08-19T18:15:11.332Z,23.16
2018-08-19T18:17:39.144Z,23.08
2018-08-19T18:30:16.968Z,23.00
2018-08-19T18:32:44.495Z,22.43
2018-08-19T18:35:11.526Z,22.36
2018-08-19T18:37:39.069Z,22.28
2018-08-19T18:40:06.342Z,22.22
2018-08-19T18:42:36.324Z,22.14
2018-08-19T18:45:12.395Z,22.16
2018-08-19T18:48:03.583Z,22.06
2018-08-19T18:50:31.281Z,22.06
2018-08-19T18:52:58.351Z,22.01
2018-08-19T18:55:25.543Z,21.90
2018-08-19T18:57:54.079Z,21.92
2018-08-19T19:00:23.046Z,21.87
2018-08-19T19:02:59.267Z,21.76
2018-08-19T19:05:34.714Z,21.64
2018-08-19T19:08:07.868Z,21.60
2018-08-19T19:10:35.079Z,21.51
2018-08-19T19:13:02.220Z,21.51
2018-08-19T19:15:31.042Z,21.44
2018-08-19T19:17:59.129Z,21.38
2018-08-19T19:20:26.111Z,21.27
2018-08-19T19:22:58.849Z,21.15
2018-08-19T19:25:30.415Z,21.13
2018-08-19T19:27:57.735Z,21.04
2018-08-19T19:30:24.860Z,21.10
2018-08-19T19:32:52.139Z,21.03
2018-08-19T19:35:19.234Z,21.01
2018-08-19T19:37:47.127Z,20.88
2018-08-19T19:40:14.596Z,20.88
2018-08-19T19:42:41.684Z,20.74
2018-08-19T19:45:09.093Z,20.75
2018-08-19T19:47:36.060Z,20.75
2018-08-19T19:50:03.409Z,20.70
2018-08-19T19:52:32.135Z,20.70
2018-08-19T19:55:00.523Z,20.72
2018-08-19T19:57:28.576Z,20.72
2018-08-19T19:59:56.305Z,20.73
2018-08-19T20:02:30.298Z,20.69
2018-08-19T20:04:59.195Z,20.70
2018-08-19T20:07:27.779Z,20.65
2018-08-19T20:09:55.236Z,20.62
2018-08-19T20:12:28.680Z,20.59
2018-08-19T20:14:56.251Z,20.59
2018-08-19T20:17:23.261Z,20.54
2018-08-19T20:19:50.909Z,20.53
2018-08-19T20:22:18.939Z,20.54
2018-08-19T20:24:46.416Z,20.45
2018-08-19T20:27:13.795Z,20.43
2018-08-19T20:29:40.820Z,20.46
2018-08-19T20:32:08.379Z,20.45
2018-08-19T20:34:35.743Z,20.49
2018-08-19T20:37:02.817Z,20.47
2018-08-19T20:39:29.841Z,20.49
2018-08-19T20:41:57.188Z,20.50
2018-08-19T20:44:24.620Z,20.48
2018-08-19T20:46:57.424Z,20.47
2018-08-19T20:49:26.854Z,20.50
2018-08-19T20:51:54.995Z,20.48
2018-08-19T20:54:22.347Z,20.48
2018-08-19T20:56:49.855Z,20.51
2018-08-19T20:59:25.631Z,20.53
2018-08-19T21:01:53.119Z,20.53
2018-08-19T21:04:20.096Z,20.51
2018-08-19T21:06:47.088Z,20.53
2018-08-19T21:09:14.156Z,20.53
2018-08-19T21:11:41.250Z,20.58
2018-08-19T21:14:08.470Z,20.60
2018-08-19T21:16:35.784Z,20.62
2018-08-19T21:19:02.818Z,20.62
2018-08-19T21:21:30.424Z,20.61
2018-08-19T21:23:57.460Z,20.62
2018-08-19T21:26:24.487Z,20.65
2018-08-19T21:28:57.508Z,20.68
2018-08-19T21:31:24.519Z,20.67
2018-08-19T21:33:51.833Z,20.67
2018-08-19T21:36:19.008Z,20.69
2018-08-19T21:38:46.015Z,20.69
2018-08-19T21:41:13.332Z,20.71
2018-08-19T21:43:40.332Z,20.72
2018-08-19T21:46:07.647Z,20.73
2018-08-19T21:48:35.567Z,20.72
2018-08-19T21:51:02.793Z,20.71
2018-08-19T21:53:29.940Z,20.72
2018-08-19T21:55:57.380Z,20.73
2018-08-19T21:58:53.017Z,20.72
2018-08-19T22:01:20.935Z,20.73
2018-08-19T22:03:47.972Z,20.75
2018-08-19T22:06:15.196Z,20.74
2018-08-19T22:08:42.922Z,20.78
2018-08-19T22:11:10.012Z,20.73
2018-08-19T22:13:37.564Z,20.69
2018-08-19T22:16:04.903Z,20.70
2018-08-19T22:18:32.448Z,20.71
2018-08-19T22:21:22.483Z,20.71
2018-08-19T22:23:51.028Z,20.70
2018-08-19T22:26:19.373Z,20.71
2018-08-19T22:29:01.291Z,20.71
2018-08-19T22:31:28.763Z,20.71
2018-08-19T22:33:57.373Z,20.65
2018-08-19T22:36:24.411Z,20.65
2018-08-19T22:38:52.153Z,20.63
2018-08-19T22:41:22.535Z,20.61
2018-08-19T22:43:57.195Z,20.60
2018-08-19T22:46:24.889Z,20.57
2018-08-19T22:48:52.525Z,20.56
2018-08-19T22:51:19.711Z,20.58
2018-08-19T22:53:48.734Z,20.57
2018-08-19T22:56:15.739Z,20.59
2018-08-19T22:58:42.735Z,20.59
2018-08-19T23:01:09.773Z,20.56
2018-08-19T23:03:36.776Z,20.53
2018-08-19T23:06:03.823Z,20.51
2018-08-19T23:08:31.890Z,20.50
2018-08-19T23:10:59.915Z,20.49
2018-08-19T23:13:38.589Z,20.46
2018-08-19T23:16:07.335Z,20.47
2018-08-19T23:18:34.787Z,20.48
2018-08-19T23:21:01.831Z,20.51
2018-08-19T23:23:29.905Z,20.39
2018-08-19T23:25:56.964Z,20.44
2018-08-19T23:28:24.743Z,20.40
2018-08-19T23:30:51.840Z,20.34
2018-08-19T23:33:19.211Z,20.33
2018-08-19T23:35:46.200Z,20.29
2018-08-19T23:38:13.416Z,20.29
2018-08-19T23:40:40.500Z,20.29
2018-08-19T23:43:07.701Z,20.23
2018-08-19T23:45:35.077Z,20.24
2018-08-19T23:48:02.347Z,20.17
2018-08-19T23:50:29.453Z,20.19
2018-08-19T23:52:56.643Z,20.13
2018-08-19T23:55:23.871Z,20.13
2018-08-19T23:57:50.863Z,20.09
